LIBDLIBC

Guest
Details From LIBD - Bari Palese Macchie
To LIBC - CROTONE
Flight Number -
Tags generated
Created
Modified
Stats Distance 131 nm / 242 km
Max Altitude 14,000 ft / 4,267 m
Waypoints 3
Social Downloads 1
Likes 0
Share VATSIM

Download

Looking for another format? Having issues loading an existing format? Contact us
Advertisement - Login to hide

Notes

Basic altitude profile: - Ascent Rate: 2500ft/min - Ascent Speed: 250kts - Cruise Altitude: 28000ft - Cruise Speed: 420kts - Descent Rate: 1500ft/min - Descent Speed: 250kts Options: - Use NATs: yes - Use PACOTS: yes - Use low airways: yes - Use high airways: yes

Route

LIBD SIRGI LIBC

ID Type Via Altitude Latitude Longitude Leg Dist Tot Dist Heading (true) Name
O LIBD APT - 0 ft / 0 m 41.13787˚ 16.75832˚ - 0 nm - Bari Palese Macchie
SIRGI FIX - 14,000 ft / 4,267 m 40.13056˚ 16.70361˚ 60 nm 60 nm 182° / 182° -
O LIBC APT - 0 ft / 0 m 38.99722˚ 17.08017˚ 70 nm 130 nm 166° / 166° CROTONE

Altitude Profile

Advertisement - Login to hide

LIBD

Details ICAO LIBD (BRI)
Name Bari Palese Macchie
Region Italy
Timezone Europe/Rome (UTC+1.0)
Stats Elevation 177 ft / 54 m (AMSL)
Location 41.137865° 16.758318°
Runways 1
Magnetic Variation 3.738° E

METAR

LIBD 161050Z 23005KT 200V270 CAVOK 12/04 Q1006

Decode

TAF

TAF LIBD 160500Z 1606/1706 24013KT 9999 SCT030= TAF LIBP 160500Z 1606/1706 23012KT 9999 SCT030 BECMG 1608/1610 VRB05KT BECMG 1616/1618 28012KT TEMPO 1700/1706 4000 TSRA

Decode

Departure Runways

ID Width Length Bearing (true) Bearing (mag) Surface Threshold Offset Overrun Length
07 148 ft / 45 m 9,262 ft / 2,823 m 69.39° 65.65° Asphalt 1,257 ft / 383 m 0 ft / 0 m
25 148 ft / 45 m 9,262 ft / 2,823 m 249.42° 245.68° Asphalt 0 ft / 0 m 194 ft / 59 m

LIBC

Details ICAO LIBC (CRV)
Name CROTONE
Region Italy
Timezone Europe/Rome (UTC+1.0)
Stats Elevation 521 ft / 159 m (AMSL)
Location 38.997223° 17.080170°
Runways 1
Magnetic Variation 3.629° E

METAR

LIBC 161050Z 22010KT 9999 SCT060 15/10 Q1007

Decode

TAF

TAF LIBC 160855Z 1609/1706 22018KT 9999 SCT030 BECMG 1616/1618 28018G28KT TEMPO 1618/1706 SHRA

Decode

Destination Runways

ID Width Length Bearing (true) Bearing (mag) Surface Threshold Offset Overrun Length
17 148 ft / 45 m 6,572 ft / 2,003 m 168.92° 165.29° Asphalt 525 ft / 160 m 0 ft / 0 m
35 148 ft / 45 m 6,572 ft / 2,003 m 348.92° 345.29° Asphalt 0 ft / 0 m 0 ft / 0 m

Popular Alternatives